カラカス の空港の天気 - METARとTAF

シモン・ボリバー空港(バルガス) ( SVMI / CCS ) - ベネズエラ バルガス州、Maiquetia (カラカス近郊)
飛行場実況気象(Metar)
観測時間04/21 12:00 VET (04/21 16:00 UTC)
風向・風速東南東 3m/s
視程10km以上
天気現象
全天の4割程度の雲 雲底高度 490m
気温30℃
湿度70%
気圧1013hPa
METARSVMI 211600Z 11006KT 9999 SCT016 30/24 Q1013
過去の天気等 Google飛行場航空写真 Wunderground天気予報

過去48時間のMETAR

飛行場予報(TAF)
発表時間: 4/21 06:00 VET (4/21 10:00 UTC)
予報対象時間: 21日8時 VET ~ 22日8時 VET
風向・風速静穏
視程10km以上
全天の4割程度の雲 雲底高度 490m
21日10時 VET ~ 21日14時 VET に一時的に
風向・風速東 4m/s
視程9000m
天気現象周辺で霧雨
全天の8割程度の雲 雲底高度 490m
TAF SVMI 211000Z 2112/2212 00000KT 9999 SCT016 TX33/19Z TN24/09Z
TEMPO 2114/2118 09008KT 9000 VCDZ BKN016